Observations for NORWICH WEA CNTRE, United Kingdom (EGSH)

EGSH 192020Z 22003KT CAVOK 09/07 Q1003 NOSIG
EGSH 191950Z 21003KT CAVOK 08/07 Q1003 NOSIG
EGSH 191920Z 22003KT CAVOK 08/07 Q1002 NOSIG
EGSH 191850Z 23002KT CAVOK 10/08 Q1002 NOSIG
EGSH 191820Z 23003KT CAVOK 11/08 Q1002 NOSIG
EGSH 191750Z 23002KT CAVOK 10/08 Q1002 NOSIG
EGSH 191720Z 25004KT 230V290 CAVOK 11/08 Q1002 NOSIG
EGSH 191650Z 24003KT CAVOK 11/08 Q1001 NOSIG
EGSH 191620Z 24004KT CAVOK 12/08 Q1001 NOSIG
EGSH 191550Z 25004KT 220V290 9999 FEW029 12/08 Q1000 NOSIG  
EGSH 191520Z 25005KT 9999 FEW029 13/08 Q1000 NOSIG  
EGSH 191450Z 25005KT 220V280 9999 FEW029 12/08 Q1000 NOSIG  
EGSH 191420Z 26006KT 220V290 9999 FEW027 13/08 Q1000 NOSIG  
EGSH 191350Z 24007KT 210V280 9999 FEW032 14/09 Q0999 NOSIG  
EGSH 191320Z 25007KT 220V280 9999 SCT033 13/08 Q0999 NOSIG  
EGSH 191250Z 23008KT 200V270 9999 SCT026 13/08 Q0999 NOSIG  
EGSH 191220Z 24007KT 210V280 9999 SCT026 13/08 Q0999 NOSIG  
EGSH 191150Z 23009KT 9999 SCT026 13/08 Q0999 NOSIG  
EGSH 191120Z 23008KT 9999 SCT016 13/08 Q0999 NOSIG  
EGSH 191050Z 23007KT 190V270 9999 SCT016 13/09 Q0999 NOSIG  
EGSH 191020Z 22007KT 190V260 9999 SCT011 13/10 Q0999 TEMPO BKN012   
EGSH 190950Z 22008KT 180V260 9999 SCT011 12/09 Q0999 TEMPO BKN012   
EGSH 190920Z 22008KT 180V250 9999 SCT011 12/10 Q0998 NOSIG  
EGSH 190850Z 22007KT 190V250 9999 FEW012 11/09 Q0998 NOSIG  
EGSH 190820Z 22007KT 180V250 9999 FEW012 11/09 Q0998 NOSIG  
EGSH 190750Z 21006KT CAVOK 10/09 Q0998 NOSIG
EGSH 190720Z 21005KT 180V240 CAVOK 09/08 Q0998 NOSIG
EGSH 190650Z 20004KT CAVOK 09/08 Q0998 NOSIG
EGSH 190620Z 20005KT 180V240 CAVOK 09/08 Q0998 NOSIG
EGSH 190550Z 20004KT CAVOK 09/08 Q0998 NOSIG
EGSH 190520Z 21004KT CAVOK 09/08 Q0998 NOSIG
EGSH 190450Z 20005KT 170V230 CAVOK 09/08 Q0998 NOSIG
EGSH 190420Z AUTO 20005KT 9999 NCD 10/09 Q0998  
EGSH 190350Z AUTO 21005KT 180V240 9999 NCD 10/09 Q0998  
EGSH 190320Z AUTO 20005KT 9999 NCD 10/08 Q0998  
EGSH 190250Z AUTO 20006KT 170V230 9999 NCD 10/09 Q0998  
EGSH 190220Z AUTO 20006KT 160V240 9999 NCD 10/09 Q0998  
EGSH 190150Z AUTO 20006KT 9999 NCD 10/09 Q0998  
EGSH 190120Z AUTO 20006KT 160V230 9999 NCD 10/09 Q0998  
EGSH 190050Z AUTO 20006KT 170V240 9999 NCD 10/09 Q0998  
EGSH 190020Z AUTO 20007KT 170V230 9999 NCD 10/08 Q0998  
EGSH 182350Z AUTO 20006KT 9999 NCD 10/09 Q0998  
EGSH 182320Z AUTO 21007KT 180V240 9999 NCD 10/09 Q0998  
EGSH 182250Z AUTO 20007KT 160V230 9999 NCD 10/08 Q0998  
EGSH 182220Z AUTO 20007KT 9999 NCD 10/08 Q0998  
EGSH 182150Z AUTO 20007KT 160V240 9999 NCD 10/08 Q0999  
EGSH 182120Z AUTO 20006KT 170V230 9999 NCD 10/08 Q0999  
EGSH 182050Z AUTO 20007KT 170V230 9999 NCD 10/08 Q0999  
EGSH 182020Z 19007KT CAVOK 10/08 Q0999 NOSIG
EGSH 181950Z 19006KT CAVOK 09/08 Q0999 NOSIG